X  Zatvori METAR podaci zračne luke     LYNI Nis Airport
Temperatura
7°C Temperatura
3°C Točka rosišta
76% Vlaga



Vjetar
3 MPS
5 KM/S
1 M/S
3 Čvorovi



140°
JI
Trenutna situacija

Vedro Vedro
Tlak zraka 1012.87 (hPa) - 29.91 (inHg)
Vidljivost 6 (milje) - 9.7 (km)
Zračna luka
Kôd zračne luke LYNI

Lokacija: Nis Airport
Udaljenost: 63 (mi)

Metar:
LYNI 230630Z 14003KT 100V190 CAVOK 07/03 Q1013 NOSIG

Vrijeme: 23-02-2024 07:30 CET